OYAA/ADE METAR and TAF weather

Enter ICAO airport designator
Station Type Date Time Source
OYAA METAR 2024/06/14 02:00 UTC NOAA

OYAA 140200Z 36005KT 6000 FEW020 32/26 Q1005 NOSIG


Station Type Date Time Source
OYAA Decoded METAR 2024/06/14 02:00 UTC NOAA

Aden, Yemen (OYAA) 12-40N 045-02E 3M
Jun 13, 2024 - 10:00 PM EDT / 2024.06.14 0200 UTC
Wind: from the N (360 degrees) at 6 MPH (5 KT):0
Visibility: 3 mile(s):0
Sky conditions: mostly clear
Temperature: 89 F (32 C)
Heat index: 102.9 F (39.4 C):1
Dew Point: 78 F (26 C)
Relative Humidity: 70%
Pressure (altimeter): 29.68 in. Hg (1005 hPa)
ob: OYAA 140200Z 36005KT 6000 FEW020 32/26 Q1005 NOSIG
cycle: 2

Station Type Date Time Source
OYAA TAF 2023/05/22 06:03 UTC NOAA